createdAt,value
2023-04-02T00:02:24.005Z,99574.94
2023-04-02T00:05:34.865Z,99576.75
2023-04-02T00:08:41.080Z,99576.75
2023-04-02T00:11:49.270Z,99580.34
2023-04-02T00:14:55.482Z,99570.88
2023-04-02T00:18:00.360Z,99571.78
2023-04-02T00:21:16.932Z,99566.63
2023-04-02T00:24:22.627Z,99572.78
2023-04-02T00:27:28.507Z,99579.78
2023-04-02T00:30:32.175Z,99573.72
2023-04-02T00:33:35.910Z,99580.66
2023-04-02T00:36:38.823Z,99590.22
2023-04-02T00:39:41.608Z,99603.28
2023-04-02T00:42:46.529Z,99594.63
2023-04-02T00:45:58.642Z,99597.19
2023-04-02T00:49:09.939Z,99606.78
2023-04-02T00:52:18.486Z,99601.59
2023-04-02T00:55:33.240Z,99600.69
2023-04-02T00:58:37.924Z,99597.28
2023-04-02T01:01:42.745Z,99598.13
2023-04-02T01:04:58.906Z,99594.69
2023-04-02T01:08:34.639Z,99597.28
2023-04-02T01:12:03.249Z,99598.13
2023-04-02T01:15:13.359Z,99593.69
2023-04-02T01:18:21.057Z,99593.69
2023-04-02T01:21:25.440Z,99604.97
2023-04-02T01:24:33.284Z,99602.38
2023-04-02T01:27:57.364Z,99609.34
2023-04-02T01:31:01.955Z,99611.13
2023-04-02T01:34:08.579Z,99604.22
2023-04-02T01:37:22.876Z,99584.91
2023-04-02T01:40:40.168Z,99597.25
2023-04-02T01:43:58.577Z,99609.50
2023-04-02T01:47:07.063Z,99611.25
2023-04-02T01:50:31.933Z,99604.31
2023-04-02T01:53:42.012Z,99607.81
2023-04-02T01:56:47.613Z,99617.34
2023-04-02T01:59:51.161Z,99613.81
2023-04-02T02:02:54.231Z,99615.59
2023-04-02T02:05:59.610Z,99619.87
2023-04-02T02:09:06.576Z,99618.16
2023-04-02T02:12:15.523Z,99619.00
2023-04-02T02:15:22.233Z,99625.84
2023-04-02T02:18:27.738Z,99620.56
2023-04-02T02:21:44.508Z,99620.53
2023-04-02T02:24:48.251Z,99624.88
2023-04-02T02:28:21.739Z,99633.53
2023-04-02T02:31:29.703Z,99625.63
2023-04-02T02:34:43.527Z,99625.59
2023-04-02T02:37:52.981Z,99623.84
2023-04-02T02:41:04.573Z,99625.56
2023-04-02T02:44:11.280Z,99622.09
2023-04-02T02:47:33.755Z,99621.22
2023-04-02T02:50:41.211Z,99627.25
2023-04-02T02:53:49.948Z,99621.97
2023-04-02T02:57:03.989Z,99612.34
2023-04-02T03:00:09.932Z,99609.69
2023-04-02T03:03:19.419Z,99614.00
2023-04-02T03:06:24.566Z,99617.47
2023-04-02T03:09:58.656Z,99618.31
2023-04-02T03:13:29.623Z,99607.88
2023-04-02T03:16:42.461Z,99613.03
2023-04-02T03:19:52.169Z,99613.84
2023-04-02T03:23:02.550Z,99613.78
2023-04-02T03:26:12.822Z,99616.28
2023-04-02T03:29:31.349Z,99610.22
2023-04-02T03:32:39.253Z,99620.59
2023-04-02T03:36:10.799Z,99620.59
2023-04-02T03:39:21.035Z,99623.09
2023-04-02T03:42:28.751Z,99625.75
2023-04-02T03:45:41.102Z,99631.78
2023-04-02T03:48:49.861Z,99626.63
2023-04-02T03:52:02.755Z,99632.59
2023-04-02T03:55:17.775Z,99636.91
2023-04-02T03:58:27.112Z,99641.19
2023-04-02T04:01:41.794Z,99644.66
2023-04-02T04:04:48.537Z,99644.53
2023-04-02T04:08:07.956Z,99630.44
2023-04-02T04:11:20.011Z,99646.00
2023-04-02T04:14:35.194Z,99643.94
2023-04-02T04:17:54.447Z,99653.44
2023-04-02T04:21:02.250Z,99657.44
2023-04-02T04:24:20.402Z,99657.37
2023-04-02T04:27:24.010Z,99660.72
2023-04-02T04:30:35.006Z,99664.94
2023-04-02T04:33:44.025Z,99672.47
2023-04-02T04:36:54.912Z,99671.50
2023-04-02T04:40:10.499Z,99669.06
2023-04-02T04:43:30.261Z,99677.03
2023-04-02T04:46:47.952Z,99675.53
2023-04-02T04:50:06.548Z,99677.53
2023-04-02T04:53:29.538Z,99676.81
2023-04-02T04:56:37.708Z,99671.75
2023-04-02T05:00:08.142Z,99683.34
2023-04-02T05:03:33.053Z,99678.69
2023-04-02T05:06:45.903Z,99682.75
2023-04-02T05:09:59.112Z,99690.28
2023-04-02T05:13:33.392Z,99687.28
2023-04-02T05:16:43.712Z,99688.56
2023-04-02T05:20:03.603Z,99687.44
2023-04-02T05:23:23.677Z,99688.81
2023-04-02T05:26:39.977Z,99692.81
2023-04-02T05:29:51.025Z,99700.19
2023-04-02T05:33:13.516Z,99695.47
2023-04-02T05:36:32.576Z,99701.22
2023-04-02T05:39:37.514Z,99700.69
2023-04-02T05:42:46.477Z,99702.00
2023-04-02T05:45:59.752Z,99698.91
2023-04-02T05:49:18.421Z,99702.63
2023-04-02T05:52:34.530Z,99710.91
2023-04-02T05:56:27.419Z,99721.50
2023-04-02T15:53:03.427Z,99904.38
2023-04-02T15:56:47.017Z,99914.09
2023-04-02T16:00:33.669Z,99911.13
2023-04-02T16:04:05.600Z,99924.81
2023-04-02T16:07:20.924Z,99930.13
2023-04-02T16:10:42.928Z,99941.09
2023-04-02T16:13:47.597Z,99941.75
2023-04-02T16:17:21.717Z,99932.81
2023-04-02T16:20:41.799Z,99935.69
2023-04-02T16:23:49.593Z,99948.31
2023-04-02T16:27:24.899Z,99931.81
2023-04-02T16:31:04.684Z,99938.53
2023-04-02T16:34:24.690Z,99943.16
2023-04-02T16:38:10.032Z,99943.16
2023-04-02T16:41:42.634Z,99937.28
2023-04-02T16:45:18.035Z,99940.91
2023-04-02T16:48:43.667Z,99943.72
2023-04-02T16:52:06.541Z,99954.50
2023-04-02T16:55:23.635Z,99954.66
2023-04-02T16:58:37.645Z,99960.69
2023-04-02T17:02:25.516Z,99965.81
2023-04-02T17:06:00.605Z,99967.31
2023-04-02T17:09:16.560Z,99979.53
2023-04-02T17:12:28.356Z,99988.22
2023-04-02T17:15:45.567Z,99999.28
2023-04-02T17:18:58.438Z,99998.25
2023-04-02T17:22:14.449Z,100005.75
2023-04-02T17:25:32.766Z,100010.16
2023-04-02T17:28:49.617Z,100010.75
2023-04-02T17:32:01.925Z,100022.84
2023-04-02T17:35:26.863Z,100021.00
2023-04-02T17:39:00.399Z,100035.66
2023-04-02T17:42:38.741Z,100036.25
2023-04-02T17:46:04.617Z,100037.00
2023-04-02T17:49:36.947Z,100042.09
2023-04-02T17:53:02.710Z,100046.12
2023-04-02T17:56:23.821Z,100051.19
2023-04-02T17:59:56.532Z,100052.72
2023-04-02T18:03:49.599Z,100071.56
2023-04-02T18:07:23.586Z,100081.72
2023-04-02T18:11:02.791Z,100086.50
2023-04-02T18:14:34.586Z,100084.50
2023-04-02T18:18:16.697Z,100098.94
2023-04-02T18:21:34.525Z,100107.34
2023-04-02T18:25:09.121Z,100121.16
2023-04-02T18:28:34.542Z,100131.34
2023-04-02T18:31:58.426Z,100129.22
2023-04-02T18:35:24.726Z,100133.38
2023-04-02T18:39:03.504Z,100136.59
2023-04-02T18:42:26.796Z,100148.56
2023-04-02T18:45:43.736Z,100149.88
2023-04-02T18:49:22.545Z,100151.31
2023-04-02T18:52:35.696Z,100158.84
2023-04-02T18:56:05.834Z,100157.78
2023-04-02T18:59:24.647Z,100155.06
2023-04-02T19:02:57.498Z,100158.19
2023-04-02T19:06:30.619Z,100169.41
2023-04-02T19:09:44.857Z,100179.63
2023-04-02T19:12:50.000Z,100171.50
2023-04-02T19:16:16.554Z,100173.94
2023-04-02T19:19:53.841Z,100172.97
2023-04-02T19:23:34.675Z,100179.63
2023-04-02T19:26:54.549Z,100189.94
2023-04-02T19:30:42.625Z,100199.41
2023-04-02T19:34:08.829Z,100206.78
2023-04-02T19:37:35.425Z,100207.16
2023-04-02T19:41:25.841Z,100209.50
2023-04-02T19:44:36.847Z,100217.97
2023-04-02T19:47:42.494Z,100228.06
2023-04-02T19:51:00.891Z,100228.66
2023-04-02T19:54:24.906Z,100232.56
2023-04-02T19:57:38.571Z,100233.28
2023-04-02T20:00:55.548Z,100244.63
2023-04-02T20:04:05.910Z,100237.47
2023-04-02T20:07:08.732Z,100232.69
2023-04-02T20:10:13.753Z,100244.34
2023-04-02T20:13:16.783Z,100247.81
2023-04-02T20:16:23.521Z,100255.56
2023-04-02T20:19:29.620Z,100259.69
2023-04-02T20:22:43.883Z,100261.53
2023-04-02T20:25:58.467Z,100276.41
2023-04-02T20:29:09.548Z,100277.00
2023-04-02T20:32:13.501Z,100283.91
2023-04-02T20:35:29.896Z,100289.22
2023-04-02T20:38:41.765Z,100291.00
2023-04-02T20:41:49.543Z,100307.34
2023-04-02T20:44:52.505Z,100305.44
2023-04-02T20:47:56.874Z,100305.50
2023-04-02T20:51:09.465Z,100313.00
2023-04-02T20:54:30.085Z,100320.84
2023-04-02T20:57:43.036Z,100317.38
2023-04-02T21:00:53.690Z,100324.09
2023-04-02T21:04:02.323Z,100338.97
2023-04-02T21:07:16.520Z,100341.59
2023-04-02T21:10:26.886Z,100338.03
2023-04-02T21:13:38.484Z,100340.62
2023-04-02T21:16:42.995Z,100347.66
2023-04-02T21:19:52.386Z,100353.69
2023-04-02T21:23:07.401Z,100333.38
2023-04-02T21:26:16.855Z,100348.50
2023-04-02T21:29:19.553Z,100352.91
2023-04-02T21:32:24.052Z,100360.66
2023-04-02T21:35:34.005Z,100359.69
2023-04-02T21:38:47.610Z,100361.59
2023-04-02T21:41:56.995Z,100367.00
2023-04-02T21:45:00.150Z,100356.34
2023-04-02T21:48:04.588Z,100380.94
2023-04-02T21:51:21.780Z,100379.41
2023-04-02T21:54:31.395Z,100376.03
2023-04-02T21:57:34.734Z,100386.25
2023-04-02T22:00:38.701Z,100393.28
2023-04-02T22:03:43.552Z,100395.94
2023-04-02T22:06:47.032Z,100401.91
2023-04-02T22:09:52.285Z,100398.22
2023-04-02T22:12:56.512Z,100402.34
2023-04-02T22:16:03.661Z,100411.09
2023-04-02T22:19:13.253Z,100410.22
2023-04-02T22:22:16.633Z,100418.00
2023-04-02T22:25:19.818Z,100422.25
2023-04-02T22:28:23.603Z,100417.06
2023-04-02T22:31:29.708Z,100424.78
2023-04-02T22:34:34.547Z,100425.25
2023-04-02T22:37:38.561Z,100429.16
2023-04-02T22:40:42.786Z,100437.37
2023-04-02T22:43:46.102Z,100439.66
2023-04-02T22:46:49.359Z,100440.53
2023-04-02T22:49:53.028Z,100443.69
2023-04-02T22:52:56.883Z,100439.38
2023-04-02T22:56:06.835Z,100445.25
2023-04-02T22:59:11.562Z,100452.03
2023-04-02T23:02:14.224Z,100454.69
2023-04-02T23:05:17.600Z,100449.22
2023-04-02T23:08:21.787Z,100460.44
2023-04-02T23:11:28.454Z,100468.91
2023-04-02T23:14:31.357Z,100465.34
2023-04-02T23:17:36.142Z,100474.72
2023-04-02T23:20:40.744Z,100480.34
2023-04-02T23:23:51.589Z,100482.59
2023-04-02T23:26:54.624Z,100487.56
2023-04-02T23:29:57.629Z,100484.81
2023-04-02T23:33:03.506Z,100484.69
2023-04-02T23:36:10.304Z,100477.50
2023-04-02T23:39:13.979Z,100481.72
2023-04-02T23:42:18.756Z,100480.84
2023-04-02T23:45:22.034Z,100481.66
2023-04-02T23:48:25.445Z,100483.16
2023-04-02T23:51:32.296Z,100479.38
2023-04-02T23:54:35.719Z,100482.72
2023-04-02T23:57:38.730Z,100485.97
